sensor_id;sensor_type;location;lat;lon;timestamp;pressure;altitude;pressure_sealevel;temperature;humidity
6835;BME280;3455;42.150;24.734;2022-12-07T00:01:16;66370.06;;;7.40;89.60
6835;BME280;3455;42.150;24.734;2022-12-07T00:03:45;66374.22;;;7.55;89.43
6835;BME280;3455;42.150;24.734;2022-12-07T00:06:15;66362.91;;;7.61;88.56
6835;BME280;3455;42.150;24.734;2022-12-07T00:08:42;66341.38;;;7.62;87.97
6835;BME280;3455;42.150;24.734;2022-12-07T00:11:11;66345.97;;;7.66;88.49
6835;BME280;3455;42.150;24.734;2022-12-07T00:13:39;66359.88;;;7.54;88.06
6835;BME280;3455;42.150;24.734;2022-12-07T00:16:07;66338.09;;;7.57;88.35
6835;BME280;3455;42.150;24.734;2022-12-07T00:18:34;66304.53;;;7.16;89.23
6835;BME280;3455;42.150;24.734;2022-12-07T00:21:02;66311.13;;;7.37;90.39
6835;BME280;3455;42.150;24.734;2022-12-07T00:23:30;66364.16;;;7.49;89.33
6835;BME280;3455;42.150;24.734;2022-12-07T00:26:03;66351.66;;;7.60;88.31
6835;BME280;3455;42.150;24.734;2022-12-07T00:28:31;66375.91;;;7.82;87.41
6835;BME280;3455;42.150;24.734;2022-12-07T00:31:01;66372.47;;;7.78;86.84
6835;BME280;3455;42.150;24.734;2022-12-07T00:33:28;66372.88;;;7.74;86.74
6835;BME280;3455;42.150;24.734;2022-12-07T00:35:55;66338.41;;;7.66;87.03
6835;BME280;3455;42.150;24.734;2022-12-07T00:38:22;66351.75;;;7.71;87.18
6835;BME280;3455;42.150;24.734;2022-12-07T00:40:54;66387.72;;;7.65;87.67
6835;BME280;3455;42.150;24.734;2022-12-07T00:43:21;66343.31;;;7.12;90.18
6835;BME280;3455;42.150;24.734;2022-12-07T00:45:49;66297.31;;;7.43;89.84
6835;BME280;3455;42.150;24.734;2022-12-07T00:48:16;66350.50;;;7.59;88.12
6835;BME280;3455;42.150;24.734;2022-12-07T00:50:42;66353.66;;;7.53;87.79
6835;BME280;3455;42.150;24.734;2022-12-07T00:53:09;66326.41;;;7.42;88.23
6835;BME280;3455;42.150;24.734;2022-12-07T00:55:36;66370.06;;;7.40;88.18
6835;BME280;3455;42.150;24.734;2022-12-07T00:58:03;66337.19;;;7.29;88.17
6835;BME280;3455;42.150;24.734;2022-12-07T01:00:30;66308.50;;;7.26;89.01
6835;BME280;3455;42.150;24.734;2022-12-07T01:02:58;66309.63;;;7.09;89.65
6835;BME280;3455;42.150;24.734;2022-12-07T01:05:25;66269.47;;;7.14;89.57
6835;BME280;3455;42.150;24.734;2022-12-07T01:07:52;66329.41;;;7.31;87.96
6835;BME280;3455;42.150;24.734;2022-12-07T01:10:19;66323.75;;;7.13;88.98
6835;BME280;3455;42.150;24.734;2022-12-07T01:12:45;66296.03;;;6.88;89.96
6835;BME280;3455;42.150;24.734;2022-12-07T01:15:13;66297.06;;;7.02;90.03
6835;BME280;3455;42.150;24.734;2022-12-07T01:17:39;66304.72;;;7.14;88.63
6835;BME280;3455;42.150;24.734;2022-12-07T01:20:08;66306.00;;;7.26;88.49
6835;BME280;3455;42.150;24.734;2022-12-07T01:22:36;66305.94;;;7.08;88.56
6835;BME280;3455;42.150;24.734;2022-12-07T01:25:04;66280.13;;;6.65;89.71
6835;BME280;3455;42.150;24.734;2022-12-07T01:27:32;66260.03;;;6.83;89.15
6835;BME280;3455;42.150;24.734;2022-12-07T01:29:59;66294.97;;;6.74;89.78
6835;BME280;3455;42.150;24.734;2022-12-07T01:32:26;66293.63;;;6.99;88.34
6835;BME280;3455;42.150;24.734;2022-12-07T01:34:53;66262.63;;;6.76;89.46
6835;BME280;3455;42.150;24.734;2022-12-07T01:37:21;66306.44;;;6.97;88.99
6835;BME280;3455;42.150;24.734;2022-12-07T01:39:48;66272.41;;;6.85;89.41
6835;BME280;3455;42.150;24.734;2022-12-07T01:42:15;66243.16;;;6.88;89.94
6835;BME280;3455;42.150;24.734;2022-12-07T01:48:03;66273.91;;;6.71;90.87
6835;BME280;3455;42.150;24.734;2022-12-07T01:50:30;66260.88;;;6.75;90.38
6835;BME280;3455;42.150;24.734;2022-12-07T01:53:02;66264.34;;;6.78;90.40
6835;BME280;3455;42.150;24.734;2022-12-07T01:55:30;66239.38;;;6.51;91.36
6835;BME280;3455;42.150;24.734;2022-12-07T01:57:57;66248.19;;;6.63;90.84
6835;BME280;3455;42.150;24.734;2022-12-07T02:00:24;66257.72;;;6.56;91.44
6835;BME280;3455;42.150;24.734;2022-12-07T02:02:55;66251.22;;;6.71;91.82
6835;BME280;3455;42.150;24.734;2022-12-07T02:05:23;66270.94;;;6.75;91.09
6835;BME280;3455;42.150;24.734;2022-12-07T02:07:51;66254.75;;;6.92;91.32
6835;BME280;3455;42.150;24.734;2022-12-07T02:10:23;66288.41;;;6.95;90.48
6835;BME280;3455;42.150;24.734;2022-12-07T02:12:52;66290.00;;;6.92;90.51
6835;BME280;3455;42.150;24.734;2022-12-07T02:15:22;66300.06;;;6.92;90.99
6835;BME280;3455;42.150;24.734;2022-12-07T02:17:59;66297.44;;;6.80;90.66
6835;BME280;3455;42.150;24.734;2022-12-07T02:20:33;66283.44;;;6.88;90.70
6835;BME280;3455;42.150;24.734;2022-12-07T02:23:21;66273.56;;;6.86;90.55
6835;BME280;3455;42.150;24.734;2022-12-07T02:26:20;66273.78;;;6.84;91.13
6835;BME280;3455;42.150;24.734;2022-12-07T02:29:07;66311.63;;;7.02;90.44
6835;BME280;3455;42.150;24.734;2022-12-07T02:31:38;66296.19;;;6.93;90.59
6835;BME280;3455;42.150;24.734;2022-12-07T02:34:10;66283.97;;;6.95;90.42
6835;BME280;3455;42.150;24.734;2022-12-07T02:36:41;66288.59;;;6.99;90.42
6835;BME280;3455;42.150;24.734;2022-12-07T02:39:16;66245.13;;;7.06;89.62
6835;BME280;3455;42.150;24.734;2022-12-07T02:41:46;66272.31;;;6.98;90.00
6835;BME280;3455;42.150;24.734;2022-12-07T02:44:18;66269.69;;;6.87;90.66
6835;BME280;3455;42.150;24.734;2022-12-07T02:46:51;66262.28;;;6.92;90.41
6835;BME280;3455;42.150;24.734;2022-12-07T02:49:21;66299.09;;;6.95;90.11
6835;BME280;3455;42.150;24.734;2022-12-07T02:51:50;66295.28;;;6.83;89.60
6835;BME280;3455;42.150;24.734;2022-12-07T02:54:19;66288.47;;;6.63;90.08
6835;BME280;3455;42.150;24.734;2022-12-07T02:56:49;66258.63;;;6.66;90.81
6835;BME280;3455;42.150;24.734;2022-12-07T02:59:25;66260.03;;;6.83;90.22
6835;BME280;3455;42.150;24.734;2022-12-07T03:02:03;66319.75;;;7.02;89.66
6835;BME280;3455;42.150;24.734;2022-12-07T03:04:42;66305.75;;;7.10;90.17
6835;BME280;3455;42.150;24.734;2022-12-07T03:07:18;66329.22;;;7.09;89.98
6835;BME280;3455;42.150;24.734;2022-12-07T03:09:55;66273.03;;;7.04;90.35
6835;BME280;3455;42.150;24.734;2022-12-07T03:12:29;66325.72;;;7.06;90.60
6835;BME280;3455;42.150;24.734;2022-12-07T03:15:02;66344.22;;;7.22;90.47
6835;BME280;3455;42.150;24.734;2022-12-07T03:17:33;66363.44;;;7.44;89.45
6835;BME280;3455;42.150;24.734;2022-12-07T03:20:05;66301.75;;;7.25;89.38
6835;BME280;3455;42.150;24.734;2022-12-07T03:22:35;66357.97;;;7.48;89.45
6835;BME280;3455;42.150;24.734;2022-12-07T03:25:07;66310.69;;;7.24;90.25
6835;BME280;3455;42.150;24.734;2022-12-07T03:27:39;66324.53;;;7.36;89.65
6835;BME280;3455;42.150;24.734;2022-12-07T03:30:12;66330.31;;;7.41;89.86
6835;BME280;3455;42.150;24.734;2022-12-07T03:32:42;66340.31;;;7.48;89.37
6835;BME280;3455;42.150;24.734;2022-12-07T03:35:14;66353.44;;;7.30;88.44
6835;BME280;3455;42.150;24.734;2022-12-07T03:37:48;66328.03;;;7.32;89.60
6835;BME280;3455;42.150;24.734;2022-12-07T03:40:19;66311.28;;;7.42;89.18
6835;BME280;3455;42.150;24.734;2022-12-07T03:42:50;66326.00;;;7.46;89.76
6835;BME280;3455;42.150;24.734;2022-12-07T03:45:22;66357.56;;;7.52;88.88
6835;BME280;3455;42.150;24.734;2022-12-07T03:47:57;66314.66;;;7.34;88.87
6835;BME280;3455;42.150;24.734;2022-12-07T03:50:31;66365.75;;;7.46;88.62
6835;BME280;3455;42.150;24.734;2022-12-07T03:53:05;66343.88;;;7.62;88.77
6835;BME280;3455;42.150;24.734;2022-12-07T03:55:36;66348.56;;;7.59;87.39
6835;BME280;3455;42.150;24.734;2022-12-07T03:58:09;66365.63;;;7.59;87.14
6835;BME280;3455;42.150;24.734;2022-12-07T04:00:40;66321.53;;;7.47;86.73
6835;BME280;3455;42.150;24.734;2022-12-07T04:03:07;66334.13;;;7.22;87.19
6835;BME280;3455;42.150;24.734;2022-12-07T04:05:34;66331.88;;;7.38;87.52
6835;BME280;3455;42.150;24.734;2022-12-07T04:08:01;66352.19;;;7.43;86.44
6835;BME280;3455;42.150;24.734;2022-12-07T04:10:28;66327.22;;;7.16;87.17
6835;BME280;3455;42.150;24.734;2022-12-07T04:12:55;66313.66;;;7.13;87.58
6835;BME280;3455;42.150;24.734;2022-12-07T04:15:21;66269.88;;;7.10;88.18
6835;BME280;3455;42.150;24.734;2022-12-07T04:17:49;66294.28;;;7.11;87.85
6835;BME280;3455;42.150;24.734;2022-12-07T04:20:17;66300.66;;;6.92;88.98
6835;BME280;3455;42.150;24.734;2022-12-07T04:22:43;66289.09;;;7.07;88.32
6835;BME280;3455;42.150;24.734;2022-12-07T04:25:10;66302.53;;;6.98;88.22
6835;BME280;3455;42.150;24.734;2022-12-07T04:27:37;66327.63;;;7.12;88.35
6835;BME280;3455;42.150;24.734;2022-12-07T04:30:05;66332.47;;;7.38;86.68
6835;BME280;3455;42.150;24.734;2022-12-07T04:32:31;66345.88;;;7.55;84.82
6835;BME280;3455;42.150;24.734;2022-12-07T04:34:59;66318.38;;;7.28;85.40
6835;BME280;3455;42.150;24.734;2022-12-07T04:37:26;66311.81;;;7.25;85.23
6835;BME280;3455;42.150;24.734;2022-12-07T04:39:53;66321.75;;;7.20;85.75
6835;BME280;3455;42.150;24.734;2022-12-07T04:42:20;66299.53;;;7.09;86.04
6835;BME280;3455;42.150;24.734;2022-12-07T04:44:46;66270.84;;;7.13;86.14
6835;BME280;3455;42.150;24.734;2022-12-07T04:47:13;66332.28;;;7.09;85.63
6835;BME280;3455;42.150;24.734;2022-12-07T04:49:40;66347.44;;;7.02;86.48
6835;BME280;3455;42.150;24.734;2022-12-07T04:52:09;66301.50;;;7.09;86.18
6835;BME280;3455;42.150;24.734;2022-12-07T04:54:35;66306.31;;;7.11;86.32
6835;BME280;3455;42.150;24.734;2022-12-07T04:57:02;66320.59;;;7.19;86.10
6835;BME280;3455;42.150;24.734;2022-12-07T04:59:29;66305.47;;;7.19;86.07
6835;BME280;3455;42.150;24.734;2022-12-07T05:01:55;66286.75;;;7.11;86.91
6835;BME280;3455;42.150;24.734;2022-12-07T05:04:22;66275.47;;;6.92;87.41
6835;BME280;3455;42.150;24.734;2022-12-07T05:06:49;66320.38;;;6.96;87.98
6835;BME280;3455;42.150;24.734;2022-12-07T05:09:17;66290.16;;;6.96;88.05
6835;BME280;3455;42.150;24.734;2022-12-07T05:11:44;66234.97;;;6.70;89.12
6835;BME280;3455;42.150;24.734;2022-12-07T05:14:13;66225.63;;;6.50;90.71
6835;BME280;3455;42.150;24.734;2022-12-07T05:16:41;66282.88;;;6.63;90.83
6835;BME280;3455;42.150;24.734;2022-12-07T05:19:08;66267.91;;;6.68;90.01
6835;BME280;3455;42.150;24.734;2022-12-07T05:21:36;66315.13;;;6.74;89.03
6835;BME280;3455;42.150;24.734;2022-12-07T05:24:03;66257.50;;;6.58;89.38
6835;BME280;3455;42.150;24.734;2022-12-07T05:26:32;66259.72;;;6.74;89.45
6835;BME280;3455;42.150;24.734;2022-12-07T05:28:59;66256.66;;;6.67;90.29
6835;BME280;3455;42.150;24.734;2022-12-07T05:31:26;66258.72;;;6.53;90.32
6835;BME280;3455;42.150;24.734;2022-12-07T05:33:53;66243.34;;;6.37;91.04
6835;BME280;3455;42.150;24.734;2022-12-07T05:36:20;66237.81;;;6.54;91.65
6835;BME280;3455;42.150;24.734;2022-12-07T05:38:47;66234.97;;;6.45;91.26
6835;BME280;3455;42.150;24.734;2022-12-07T05:41:16;66289.25;;;6.62;91.34
6835;BME280;3455;42.150;24.734;2022-12-07T05:44:02;66292.41;;;6.80;90.37
6835;BME280;3455;42.150;24.734;2022-12-07T05:46:29;66307.66;;;6.85;89.87
6835;BME280;3455;42.150;24.734;2022-12-07T05:48:56;66289.56;;;6.96;89.14
6835;BME280;3455;42.150;24.734;2022-12-07T05:51:22;66274.31;;;6.91;89.57
6835;BME280;3455;42.150;24.734;2022-12-07T05:53:49;66292.88;;;6.94;89.73
6835;BME280;3455;42.150;24.734;2022-12-07T05:56:16;66281.66;;;6.69;90.27
6835;BME280;3455;42.150;24.734;2022-12-07T05:58:42;66249.97;;;6.83;90.14
6835;BME280;3455;42.150;24.734;2022-12-07T06:01:28;66258.34;;;6.50;90.63
6835;BME280;3455;42.150;24.734;2022-12-07T06:03:55;66244.19;;;6.53;91.28
6835;BME280;3455;42.150;24.734;2022-12-07T06:06:21;66261.00;;;6.86;89.66
6835;BME280;3455;42.150;24.734;2022-12-07T06:08:48;66301.63;;;6.89;89.96
6835;BME280;3455;42.150;24.734;2022-12-07T06:11:15;66277.88;;;6.81;88.78
6835;BME280;3455;42.150;24.734;2022-12-07T06:13:59;66277.50;;;7.03;89.06
6835;BME280;3455;42.150;24.734;2022-12-07T06:16:26;66331.50;;;7.11;88.88
6835;BME280;3455;42.150;24.734;2022-12-07T06:18:54;66316.84;;;7.25;88.62
6835;BME280;3455;42.150;24.734;2022-12-07T06:21:20;66344.69;;;7.36;86.95
6835;BME280;3455;42.150;24.734;2022-12-07T06:23:47;66363.00;;;7.48;87.49
6835;BME280;3455;42.150;24.734;2022-12-07T06:26:14;66360.59;;;7.59;85.99
6835;BME280;3455;42.150;24.734;2022-12-07T06:28:40;66363.63;;;7.66;86.32
6835;BME280;3455;42.150;24.734;2022-12-07T06:31:07;66344.63;;;7.67;86.26
6835;BME280;3455;42.150;24.734;2022-12-07T06:33:34;66387.16;;;7.83;85.77
6835;BME280;3455;42.150;24.734;2022-12-07T06:36:02;66408.81;;;7.93;84.89
6835;BME280;3455;42.150;24.734;2022-12-07T06:38:29;66395.13;;;8.03;84.68
6835;BME280;3455;42.150;24.734;2022-12-07T06:40:56;66345.09;;;7.99;83.42
6835;BME280;3455;42.150;24.734;2022-12-07T06:43:22;66423.72;;;8.19;83.10
6835;BME280;3455;42.150;24.734;2022-12-07T06:45:49;66430.34;;;8.16;82.56
6835;BME280;3455;42.150;24.734;2022-12-07T06:48:16;66369.78;;;8.16;82.56
6835;BME280;3455;42.150;24.734;2022-12-07T06:50:44;66482.50;;;8.92;82.04
6835;BME280;3455;42.150;24.734;2022-12-07T06:53:12;66530.00;;;9.63;79.85
6835;BME280;3455;42.150;24.734;2022-12-07T06:55:39;66591.16;;;9.95;75.92
6835;BME280;3455;42.150;24.734;2022-12-07T06:58:05;66596.53;;;10.04;74.91
6835;BME280;3455;42.150;24.734;2022-12-07T07:00:32;66588.56;;;9.84;74.94
6835;BME280;3455;42.150;24.734;2022-12-07T07:03:00;66542.78;;;9.86;75.45
6835;BME280;3455;42.150;24.734;2022-12-07T07:05:27;66608.97;;;10.06;75.26
6835;BME280;3455;42.150;24.734;2022-12-07T07:07:54;66578.00;;;9.88;76.01
6835;BME280;3455;42.150;24.734;2022-12-07T07:10:22;66640.63;;;10.30;75.25
6835;BME280;3455;42.150;24.734;2022-12-07T07:12:48;66640.34;;;10.57;73.85
6835;BME280;3455;42.150;24.734;2022-12-07T07:15:15;66607.94;;;10.28;72.25
6835;BME280;3455;42.150;24.734;2022-12-07T07:17:42;66616.63;;;10.54;72.23
6835;BME280;3455;42.150;24.734;2022-12-07T07:20:10;66621.06;;;10.42;72.48
6835;BME280;3455;42.150;24.734;2022-12-07T07:22:37;66633.78;;;10.35;73.40
6835;BME280;3455;42.150;24.734;2022-12-07T07:25:04;66608.34;;;10.30;74.35
6835;BME280;3455;42.150;24.734;2022-12-07T07:27:32;66656.06;;;10.64;72.52
6835;BME280;3455;42.150;24.734;2022-12-07T07:29:59;66668.16;;;10.81;72.77
6835;BME280;3455;42.150;24.734;2022-12-07T07:32:25;66640.16;;;10.59;72.73
6835;BME280;3455;42.150;24.734;2022-12-07T07:34:53;66647.44;;;10.67;72.32
6835;BME280;3455;42.150;24.734;2022-12-07T07:37:20;66675.41;;;10.61;72.55
6835;BME280;3455;42.150;24.734;2022-12-07T07:39:46;66626.91;;;10.40;72.85
6835;BME280;3455;42.150;24.734;2022-12-07T07:42:13;66655.44;;;10.70;71.79
6835;BME280;3455;42.150;24.734;2022-12-07T07:44:41;66620.38;;;10.30;73.60
6835;BME280;3455;42.150;24.734;2022-12-07T07:47:08;66686.09;;;10.79;73.76
6835;BME280;3455;42.150;24.734;2022-12-07T07:49:34;66714.78;;;11.14;71.62
6835;BME280;3455;42.150;24.734;2022-12-07T07:52:01;66794.31;;;11.71;70.17
6835;BME280;3455;42.150;24.734;2022-12-07T07:54:28;66934.50;;;13.08;63.84
6835;BME280;3455;42.150;24.734;2022-12-07T07:56:55;66903.59;;;13.35;62.27
6835;BME280;3455;42.150;24.734;2022-12-07T07:59:22;66965.66;;;13.90;60.31
6835;BME280;3455;42.150;24.734;2022-12-07T08:01:51;66870.84;;;12.97;62.63
6835;BME280;3455;42.150;24.734;2022-12-07T08:04:18;66857.19;;;12.94;63.39
6835;BME280;3455;42.150;24.734;2022-12-07T08:06:44;66917.72;;;13.34;61.38
6835;BME280;3455;42.150;24.734;2022-12-07T08:09:11;66935.13;;;13.49;61.50
6835;BME280;3455;42.150;24.734;2022-12-07T08:11:38;66969.22;;;13.75;60.21
6835;BME280;3455;42.150;24.734;2022-12-07T08:14:05;67011.22;;;14.62;57.47
6835;BME280;3455;42.150;24.734;2022-12-07T08:16:31;67157.88;;;15.82;55.43
6835;BME280;3455;42.150;24.734;2022-12-07T08:19:00;67346.41;;;17.30;51.32
6835;BME280;3455;42.150;24.734;2022-12-07T08:21:26;67470.38;;;18.74;45.55
6835;BME280;3455;42.150;24.734;2022-12-07T08:23:53;67574.78;;;19.59;44.55
6835;BME280;3455;42.150;24.734;2022-12-07T08:26:20;67498.34;;;18.98;44.22
6835;BME280;3455;42.150;24.734;2022-12-07T08:28:46;67380.13;;;18.05;45.90
6835;BME280;3455;42.150;24.734;2022-12-07T08:31:16;67504.78;;;19.31;44.57
6835;BME280;3455;42.150;24.734;2022-12-07T08:33:44;67637.03;;;20.59;41.00
6835;BME280;3455;42.150;24.734;2022-12-07T08:36:13;67936.16;;;22.49;36.25
6835;BME280;3455;42.150;24.734;2022-12-07T08:38:41;67954.25;;;22.92;36.38
6835;BME280;3455;42.150;24.734;2022-12-07T08:41:08;67968.19;;;23.00;35.20
6835;BME280;3455;42.150;24.734;2022-12-07T08:43:35;68053.13;;;23.52;34.43
6835;BME280;3455;42.150;24.734;2022-12-07T08:46:06;68017.41;;;23.48;35.40
6835;BME280;3455;42.150;24.734;2022-12-07T08:48:36;67973.00;;;22.82;36.43
6835;BME280;3455;42.150;24.734;2022-12-07T08:51:04;68073.00;;;23.69;35.40
6835;BME280;3455;42.150;24.734;2022-12-07T08:53:33;68221.16;;;25.15;32.93
6835;BME280;3455;42.150;24.734;2022-12-07T08:56:01;68158.66;;;24.38;33.61
6835;BME280;3455;42.150;24.734;2022-12-07T08:58:28;68232.41;;;24.98;32.29
6835;BME280;3455;42.150;24.734;2022-12-07T09:00:54;68210.03;;;25.21;31.99
6835;BME280;3455;42.150;24.734;2022-12-07T09:03:21;68077.91;;;24.15;33.05
6835;BME280;3455;42.150;24.734;2022-12-07T09:05:48;67949.63;;;22.77;35.07
6835;BME280;3455;42.150;24.734;2022-12-07T09:08:15;68001.94;;;23.21;35.25
6835;BME280;3455;42.150;24.734;2022-12-07T09:10:43;67964.06;;;23.40;33.97
6835;BME280;3455;42.150;24.734;2022-12-07T09:13:10;68103.97;;;24.24;33.20
6835;BME280;3455;42.150;24.734;2022-12-07T09:15:37;68389.75;;;26.33;30.63
6835;BME280;3455;42.150;24.734;2022-12-07T09:18:04;68190.13;;;24.72;32.33
6835;BME280;3455;42.150;24.734;2022-12-07T09:20:30;68059.56;;;23.58;34.08
6835;BME280;3455;42.150;24.734;2022-12-07T09:22:57;67908.19;;;22.57;35.74
6835;BME280;3455;42.150;24.734;2022-12-07T09:25:24;67971.22;;;22.80;35.73
6835;BME280;3455;42.150;24.734;2022-12-07T09:27:56;67944.06;;;23.02;36.07
6835;BME280;3455;42.150;24.734;2022-12-07T09:30:23;68064.22;;;23.89;33.22
6835;BME280;3455;42.150;24.734;2022-12-07T09:32:52;68291.25;;;25.47;31.06
6835;BME280;3455;42.150;24.734;2022-12-07T09:35:19;68124.97;;;24.38;32.74
6835;BME280;3455;42.150;24.734;2022-12-07T09:37:46;68198.84;;;24.75;32.21
6835;BME280;3455;42.150;24.734;2022-12-07T09:40:13;68156.16;;;24.42;32.49
6835;BME280;3455;42.150;24.734;2022-12-07T09:42:43;68198.34;;;24.79;31.67
6835;BME280;3455;42.150;24.734;2022-12-07T09:45:14;68266.28;;;25.39;31.32
6835;BME280;3455;42.150;24.734;2022-12-07T09:47:42;68124.56;;;24.31;32.99
6835;BME280;3455;42.150;24.734;2022-12-07T09:50:14;68222.34;;;25.32;31.81
6835;BME280;3455;42.150;24.734;2022-12-07T09:52:42;68287.97;;;25.58;30.20
6835;BME280;3455;42.150;24.734;2022-12-07T09:55:13;68176.56;;;24.56;31.15
6835;BME280;3455;42.150;24.734;2022-12-07T09:57:40;67978.75;;;23.41;33.60
6835;BME280;3455;42.150;24.734;2022-12-07T10:00:14;67983.75;;;23.32;33.94
6835;BME280;3455;42.150;24.734;2022-12-07T10:02:43;68186.28;;;24.82;31.97
6835;BME280;3455;42.150;24.734;2022-12-07T10:05:14;68266.72;;;25.62;30.21
6835;BME280;3455;42.150;24.734;2022-12-07T10:07:41;68196.25;;;24.75;31.02
6835;BME280;3455;42.150;24.734;2022-12-07T10:10:14;68273.34;;;25.45;30.67
6835;BME280;3455;42.150;24.734;2022-12-07T10:13:03;68156.50;;;24.61;31.44
6835;BME280;3455;42.150;24.734;2022-12-07T10:15:44;68292.94;;;25.44;30.51
6835;BME280;3455;42.150;24.734;2022-12-07T10:18:19;68206.13;;;24.79;31.20
6835;BME280;3455;42.150;24.734;2022-12-07T10:20:47;67976.84;;;23.30;32.91
6835;BME280;3455;42.150;24.734;2022-12-07T10:23:15;68367.63;;;25.91;29.82
6835;BME280;3455;42.150;24.734;2022-12-07T10:25:43;68151.16;;;24.52;31.46
6835;BME280;3455;42.150;24.734;2022-12-07T10:28:14;68220.59;;;24.99;30.57
6835;BME280;3455;42.150;24.734;2022-12-07T10:30:55;68227.59;;;25.05;31.06
6835;BME280;3455;42.150;24.734;2022-12-07T10:33:33;68086.69;;;24.06;31.80
6835;BME280;3455;42.150;24.734;2022-12-07T10:36:16;68058.47;;;23.88;32.07
6835;BME280;3455;42.150;24.734;2022-12-07T10:38:45;68011.44;;;23.81;32.58
6835;BME280;3455;42.150;24.734;2022-12-07T10:41:12;68348.28;;;25.90;30.70
6835;BME280;3455;42.150;24.734;2022-12-07T10:43:47;68619.22;;;28.09;27.28
6835;BME280;3455;42.150;24.734;2022-12-07T10:52:39;68269.66;;;25.33;30.50
6835;BME280;3455;42.150;24.734;2022-12-07T10:55:17;68276.84;;;25.48;30.04
6835;BME280;3455;42.150;24.734;2022-12-07T10:57:56;68428.50;;;26.67;28.26
6835;BME280;3455;42.150;24.734;2022-12-07T11:00:30;68514.81;;;27.11;28.52
6835;BME280;3455;42.150;24.734;2022-12-07T11:03:20;68498.59;;;27.10;28.43
6835;BME280;3455;42.150;24.734;2022-12-07T11:05:53;68604.47;;;27.75;27.32
6835;BME280;3455;42.150;24.734;2022-12-07T11:08:35;68576.16;;;27.46;28.05
6835;BME280;3455;42.150;24.734;2022-12-07T11:11:09;68629.91;;;28.07;26.98
6835;BME280;3455;42.150;24.734;2022-12-07T11:13:41;68468.25;;;26.93;28.67
6835;BME280;3455;42.150;24.734;2022-12-07T11:16:18;68196.31;;;24.64;31.48
6835;BME280;3455;42.150;24.734;2022-12-07T11:18:54;68072.59;;;24.05;32.82
6835;BME280;3455;42.150;24.734;2022-12-07T11:21:27;67911.97;;;22.73;34.34
6835;BME280;3455;42.150;24.734;2022-12-07T11:24:03;67778.91;;;21.77;36.32
6835;BME280;3455;42.150;24.734;2022-12-07T11:26:42;67754.75;;;21.58;36.57
6835;BME280;3455;42.150;24.734;2022-12-07T11:29:22;67788.22;;;21.69;36.01
6835;BME280;3455;42.150;24.734;2022-12-07T11:31:59;67831.91;;;22.30;35.70
6835;BME280;3455;42.150;24.734;2022-12-07T11:34:37;67846.59;;;22.21;35.97
6835;BME280;3455;42.150;24.734;2022-12-07T11:37:10;67930.25;;;22.99;35.11
6835;BME280;3455;42.150;24.734;2022-12-07T11:39:44;67853.81;;;22.36;35.38
6835;BME280;3455;42.150;24.734;2022-12-07T11:42:16;67767.59;;;21.69;36.59
6835;BME280;3455;42.150;24.734;2022-12-07T11:44:50;67601.25;;;20.18;39.58
6835;BME280;3455;42.150;24.734;2022-12-07T11:47:25;67428.56;;;18.80;42.76
6835;BME280;3455;42.150;24.734;2022-12-07T11:49:56;67420.97;;;18.46;44.64
6835;BME280;3455;42.150;24.734;2022-12-07T11:52:32;67351.13;;;17.96;45.45
6835;BME280;3455;42.150;24.734;2022-12-07T11:55:17;67346.72;;;17.89;45.72
6835;BME280;3455;42.150;24.734;2022-12-07T11:57:50;67409.06;;;18.38;44.77
6835;BME280;3455;42.150;24.734;2022-12-07T12:00:19;67359.66;;;18.21;46.35
6835;BME280;3455;42.150;24.734;2022-12-07T12:02:49;67372.47;;;18.33;45.41
6835;BME280;3455;42.150;24.734;2022-12-07T12:05:19;67230.53;;;16.80;49.23
6835;BME280;3455;42.150;24.734;2022-12-07T12:07:52;67324.09;;;17.74;47.86
6835;BME280;3455;42.150;24.734;2022-12-07T12:10:27;67400.25;;;18.25;46.36
6835;BME280;3455;42.150;24.734;2022-12-07T12:13:28;67419.06;;;18.51;45.06
6835;BME280;3455;42.150;24.734;2022-12-07T12:16:08;67320.41;;;17.62;46.57
6835;BME280;3455;42.150;24.734;2022-12-07T12:19:05;67392.91;;;18.17;45.88
6835;BME280;3455;42.150;24.734;2022-12-07T12:21:38;67347.16;;;17.85;45.81
6835;BME280;3455;42.150;24.734;2022-12-07T12:24:10;67269.72;;;17.12;48.09
6835;BME280;3455;42.150;24.734;2022-12-07T12:26:49;67242.72;;;16.91;48.84
6835;BME280;3455;42.150;24.734;2022-12-07T12:29:23;67199.00;;;16.59;49.43
6835;BME280;3455;42.150;24.734;2022-12-07T12:32:07;67203.41;;;16.99;48.62
6835;BME280;3455;42.150;24.734;2022-12-07T12:34:40;67204.09;;;16.82;49.20
6835;BME280;3455;42.150;24.734;2022-12-07T12:37:39;67238.78;;;16.81;49.27
6835;BME280;3455;42.150;24.734;2022-12-07T12:40:42;67194.38;;;16.32;50.35
6835;BME280;3455;42.150;24.734;2022-12-07T12:43:45;67182.53;;;16.35;50.61
6835;BME280;3455;42.150;24.734;2022-12-07T12:46:48;67173.91;;;16.32;50.85
6835;BME280;3455;42.150;24.734;2022-12-07T12:49:33;67202.75;;;16.49;50.75
6835;BME280;3455;42.150;24.734;2022-12-07T12:52:01;67181.09;;;16.48;50.95
6835;BME280;3455;42.150;24.734;2022-12-07T12:54:59;67208.97;;;16.72;50.61
6835;BME280;3455;42.150;24.734;2022-12-07T12:57:28;67227.13;;;16.70;49.94
6835;BME280;3455;42.150;24.734;2022-12-07T12:59:58;67122.94;;;15.92;51.88
6835;BME280;3455;42.150;24.734;2022-12-07T13:02:27;67104.66;;;16.12;51.88
6835;BME280;3455;42.150;24.734;2022-12-07T13:04:56;67114.00;;;15.75;52.79
6835;BME280;3455;42.150;24.734;2022-12-07T13:07:50;67136.50;;;15.68;52.71
6835;BME280;3455;42.150;24.734;2022-12-07T13:10:31;67100.97;;;15.54;53.37
6835;BME280;3455;42.150;24.734;2022-12-07T13:13:01;67066.59;;;15.42;54.17
6835;BME280;3455;42.150;24.734;2022-12-07T13:15:35;67107.47;;;15.65;53.22
6835;BME280;3455;42.150;24.734;2022-12-07T13:20:48;67070.06;;;15.56;53.66
6835;BME280;3455;42.150;24.734;2022-12-07T13:23:20;67012.16;;;15.44;54.19
6835;BME280;3455;42.150;24.734;2022-12-07T13:25:53;67056.38;;;15.42;54.10
6835;BME280;3455;42.150;24.734;2022-12-07T13:28:22;66969.13;;;15.01;55.36
6835;BME280;3455;42.150;24.734;2022-12-07T13:31:14;67031.56;;;15.25;54.59
6835;BME280;3455;42.150;24.734;2022-12-07T13:33:44;67003.47;;;14.91;55.75
6835;BME280;3455;42.150;24.734;2022-12-07T13:36:18;67009.03;;;14.64;57.37
6835;BME280;3455;42.150;24.734;2022-12-07T13:38:52;66988.41;;;15.00;55.71
6835;BME280;3455;42.150;24.734;2022-12-07T13:41:20;67032.00;;;14.98;55.65
6835;BME280;3455;42.150;24.734;2022-12-07T13:44:00;66991.66;;;14.94;55.71
6835;BME280;3455;42.150;24.734;2022-12-07T13:46:42;67052.91;;;15.16;54.78
6835;BME280;3455;42.150;24.734;2022-12-07T13:49:19;67008.56;;;14.91;55.64